Latest Weather Observations for Temora

IDN60801

Issued at 11:03 am EST Tuesday 26 May 2020 (issued every 10 minutes, with the page automatically refreshed every 10 minutes)

About weather observations | Map of weather stations | Latest weather observations for NSW | Other Formats
Station Details ID: 073151 Name: TEMORA AIRPORT Lat: -34.43 Lon: 147.51 Height: 280.5 m
Data from the previous 72 hours. | See also: Recent months at Temora
Date/Time
EST
Temp
°C
App
Temp
°C
Dew
Point
°C
Rel
Hum
%
Delta-T
°C
Wind Press
QNH
hPa
Press
MSL
hPa
Rain since
9am
mm
Dir  Spd
km/h
Gust
km/h
Spd
kts
Gust
kts
26/11:00am 14.5 10.8 8.0 65 3.3 ESE 17 20 9 11 1025.0 1025.1 0.0
26/10:30am 13.4 10.2 6.7 64 3.3 ESE 13 19 7 10 1025.7 1025.9 0.0
26/10:00am 13.1 10.4 7.3 68 2.8 SE 11 15 6 8 1026.1 1026.2 0.0
26/09:30am 11.1 9.5 8.0 81 1.5 SW 6 9 3 5 1025.8 1026.0 0.0
26/09:00am 9.0 7.2 7.3 89 0.8 SW 6 7 3 4 1025.8 1026.0 0.0
26/08:30am 7.1 5.1 7.0 99 0.0 SSW 7 9 4 5 1025.5 1025.7 0.0
26/08:00am 4.8 2.3 4.7 99 0.0 S 7 11 4 6 1025.0 1025.1 0.0
26/07:30am 2.5 -0.2 2.4 99 0.0 SSW 6 9 3 5 1024.9 1025.0 0.0
26/07:00am 2.5 -0.2 2.4 99 0.0 SW 6 7 3 4 1024.5 1024.6 0.0
26/06:30am 2.4 -0.4 2.3 99 0.0 SSE 6 7 3 4 1024.1 1024.2 0.0
26/06:00am 3.0 1.1 2.9 99 0.0 SSW 2 7 1 4 1023.8 1023.9 0.0
26/05:30am 3.2 1.7 3.1 99 0.0 CALM 0 0 0 0 1023.5 1023.6 0.0
26/05:00am 2.7 1.1 2.6 99 0.0 CALM 0 0 0 0 1023.2 1023.3 0.0
26/04:30am 2.8 0.1 2.7 99 0.0 SSE 6 7 3 4 1023.1 1023.2 0.0
26/04:00am 2.6 -0.3 2.5 99 0.0 SSE 7 9 4 5 1023.3 1023.4 0.0
26/03:30am 2.8 0.1 2.5 98 0.1 SSW 6 9 3 5 1023.4 1023.5 0.0
26/03:00am 3.5 1.3 3.4 99 0.0 SSE 4 7 2 4 1023.6 1023.7 0.0
26/02:30am 3.5 0.9 3.2 98 0.1 S 6 6 3 3 1023.8 1023.9 0.0
26/02:00am 3.4 0.5 2.8 96 0.2 SSW 7 9 4 5 1024.0 1024.1 0.0
26/01:30am 4.1 1.6 3.5 96 0.3 S 6 7 3 4 1024.2 1024.3 0.0
26/01:00am 4.8 1.5 4.4 97 0.2 S 11 13 6 7 1024.3 1024.4 0.0
26/12:30am 4.7 3.0 3.8 94 0.4 SW 2 6 1 3 1024.4 1024.5 0.0
26/12:00am 5.1 3.8 3.9 92 0.5 CALM 0 0 0 0 1024.1 1024.2 0.0
 
Date/Time
EST
Temp
°C
App
Temp
°C
Dew
Point
°C
Rel
Hum
%
Delta-T
°C
Wind Press
QNH
hPa
Press
MSL
hPa
Rain since
9am
mm
Dir  Spd
km/h
Gust
km/h
Spd
kts
Gust
kts
25/11:30pm 5.6 3.2 4.1 90 0.6 ESE 6 7 3 4 1024.1 1024.2 0.0
25/11:00pm 6.4 4.8 4.4 87 0.9 E 2 11 1 6 1023.9 1024.0 0.0
25/10:30pm 7.3 4.8 5.0 85 1.0 S 7 9 4 5 1023.6 1023.7 0.0
25/10:00pm 5.9 2.6 4.5 91 0.6 SSW 11 13 6 7 1023.5 1023.6 0.0
25/09:30pm 7.3 4.6 5.6 89 0.8 S 9 13 5 7 1023.6 1023.7 0.0
25/09:00pm 6.9 4.3 6.0 94 0.4 S 9 9 5 5 1023.7 1023.8 0.0
25/08:30pm 6.3 3.5 5.1 92 0.5 S 9 11 5 6 1023.7 1023.8 0.0
25/08:00pm 6.9 4.2 5.5 91 0.6 S 9 9 5 5 1023.5 1023.6 0.0
25/07:30pm 7.6 5.4 6.1 90 0.7 SSW 7 9 4 5 1023.3 1023.4 0.0
25/07:00pm 7.7 5.3 5.3 85 1.1 SSW 7 7 4 4 1022.8 1022.9 0.0
25/06:30pm 8.6 6.5 5.9 83 1.2 SSW 6 7 3 4 1022.6 1022.7 0.0
25/06:00pm 9.5 7.2 5.9 78 1.7 S 7 9 4 5 1022.3 1022.3 0.0
25/05:30pm 12.4 10.1 5.8 64 3.1 S 7 7 4 4 1022.0 1022.1 0.0
25/05:00pm 13.3 10.5 5.2 58 3.8 S 9 11 5 6 1021.8 1021.9 0.0
25/04:30pm 14.9 11.3 5.1 52 4.7 SSE 13 15 7 8 1021.6 1021.7 0.0
25/04:00pm 15.5 11.6 5.4 51 4.9 SSE 15 20 8 11 1021.2 1021.3 0.0
25/03:30pm 15.9 12.0 5.2 49 5.2 SSE 15 26 8 14 1021.0 1021.1 0.0
25/03:00pm 16.1 12.6 5.4 49 5.2 SSE 13 19 7 10 1021.0 1021.1 0.0
25/02:30pm 15.9 12.0 5.2 49 5.2 SSE 15 22 8 12 1021.0 1021.1 0.0
25/02:00pm 15.6 12.4 5.2 50 5.0 SSW 11 17 6 9 1021.1 1021.2 0.0
25/01:30pm 15.6 11.5 4.6 48 5.2 SSE 15 20 8 11 1021.3 1021.4 0.0
25/01:00pm 15.5 11.6 5.4 51 4.9 SSE 15 19 8 10 1021.3 1021.4 0.0
25/12:30pm 15.3 11.8 5.5 52 4.7 SSW 13 22 7 12 1021.4 1021.5 0.0
25/12:00pm 14.7 11.1 5.2 53 4.5 S 13 17 7 9 1021.8 1021.9 0.0
25/11:30am 14.4 10.7 6.3 58 4.0 S 15 19 8 10 1022.0 1022.1 0.0
25/11:00am 14.0 10.7 6.4 60 3.7 SSE 13 17 7 9 1021.9 1022.0 0.0
25/10:30am 13.0 9.4 6.6 65 3.1 S 15 20 8 11 1022.3 1022.3 0.0
25/10:00am 11.6 9.4 6.3 70 2.5 S 7 13 4 7 1022.3 1022.3 0.0
25/09:30am 10.1 8.7 5.7 74 2.1 NNE 2 7 1 4 1022.1 1022.2 0.0
25/09:00am 7.8 6.4 5.6 86 1.0 N 2 6 1 3 1022.1 1022.2 0.0
25/08:30am 5.3 4.1 4.7 96 0.3 CALM 0 0 0 0 1021.7 1021.8 0.0
25/08:00am 2.5 0.9 2.4 99 0.0 CALM 0 6 0 3 1021.4 1021.5 0.0
25/07:30am 1.4 -0.4 1.1 98 0.1 CALM 0 7 0 4 1021.3 1021.4 0.0
25/07:00am 2.0 -0.1 1.9 99 0.0 SSW 2 7 1 4 1020.9 1021.0 0.0
25/06:30am 2.1 -0.9 2.0 99 0.0 S 7 7 4 4 1020.7 1020.8 0.0
25/06:00am 0.6 -2.7 -0.1 95 0.3 SSW 7 9 4 5 1020.4 1020.5 0.0
25/05:30am 1.9 0.1 1.3 96 0.2 CALM 0 0 0 0 1020.1 1020.2 0.0
25/05:00am 1.6 -0.2 1.0 96 0.2 CALM 0 2 0 1 1020.1 1020.2 0.0
25/04:30am 1.7 -1.3 1.1 96 0.2 SE 6 7 3 4 1019.9 1020.0 0.0
25/04:00am 1.7 -1.8 1.1 96 0.2 SSW 9 9 5 5 1019.8 1019.9 0.0
25/03:30am 1.4 -2.2 0.8 96 0.2 SSW 9 11 5 6 1019.7 1019.8 0.0
25/03:00am 2.0 -1.1 1.4 96 0.2 SSW 7 11 4 6 1019.6 1019.7 0.0
25/02:30am 1.9 -1.2 1.3 96 0.2 S 7 9 4 5 1019.4 1019.4 0.0
25/02:00am 2.0 -1.1 1.4 96 0.2 SSW 7 9 4 5 1019.6 1019.7 0.0
25/01:30am 2.2 -1.3 1.5 95 0.3 SSW 9 11 5 6 1019.7 1019.8 0.0
25/01:00am 2.9 -0.1 2.3 96 0.2 SSW 7 9 4 5 1019.5 1019.5 0.0
25/12:30am 2.5 -1.3 1.8 95 0.3 S 11 13 6 7 1019.5 1019.5 0.0
25/12:00am 3.7 2.2 3.0 95 0.3 CALM 0 0 0 0 1019.4 1019.4 0.0
 
Date/Time
EST
Temp
°C
App
Temp
°C
Dew
Point
°C
Rel
Hum
%
Delta-T
°C
Wind Press
QNH
hPa
Press
MSL
hPa
Rain since
9am
mm
Dir  Spd
km/h
Gust
km/h
Spd
kts
Gust
kts
24/11:30pm 3.5 1.9 2.2 91 0.5 CALM 0 0 0 0 1019.3 1019.3 0.0
24/11:00pm 4.5 2.9 2.7 88 0.7 CALM 0 0 0 0 1019.3 1019.3 0.0
24/10:30pm 5.2 3.0 3.2 87 0.8 SSW 4 9 2 5 1019.4 1019.4 0.0
24/10:00pm 5.7 2.9 3.0 83 1.1 SW 7 9 4 5 1019.4 1019.4 0.0
24/09:30pm 6.9 3.8 3.5 79 1.5 SSW 9 11 5 6 1019.4 1019.4 0.0
24/09:00pm 8.3 4.9 3.8 73 2.0 S 11 15 6 8 1019.3 1019.3 0.0
24/08:30pm 8.6 4.9 4.2 74 2.0 S 13 19 7 10 1019.0 1019.0 0.0
24/08:00pm 8.7 5.0 4.5 75 1.9 SSW 13 17 7 9 1018.7 1018.7 0.0
24/07:30pm 8.9 5.7 5.1 77 1.7 SSW 11 15 6 8 1018.3 1018.4 0.0
24/07:00pm 7.3 4.8 4.6 83 1.2 SSW 7 9 4 5 1018.2 1018.3 0.0
24/06:30pm 8.4 5.9 5.0 79 1.5 SSW 7 9 4 5 1018.0 1018.1 0.0
24/06:00pm 10.1 7.2 4.9 70 2.4 SSW 9 11 5 6 1017.7 1017.8 0.0
24/05:30pm 11.4 8.1 4.6 63 3.1 SSW 11 13 6 7 1017.6 1017.7 0.0
24/05:00pm 12.9 9.6 4.6 57 3.9 SSW 11 15 6 8 1017.4 1017.5 0.0
24/04:30pm 14.3 10.7 4.9 53 4.5 SSW 13 20 7 11 1017.1 1017.2 0.0
24/04:00pm 15.1 11.2 5.3 52 4.7 S 15 20 8 11 1016.7 1016.8 0.0
24/03:30pm 15.8 11.8 5.1 49 5.1 SSW 15 20 8 11 1016.3 1016.3 0.0
24/03:00pm 15.7 11.3 5.0 49 5.1 S 17 22 9 12 1016.1 1016.1 0.0
24/02:30pm 16.1 12.7 6.0 51 5.0 SSW 13 22 7 12 1016.0 1016.0 0.0
24/02:00pm 16.0 12.3 6.4 53 4.7 SSW 15 20 8 11 1015.9 1015.9 0.0
24/01:30pm 15.6 11.5 6.3 54 4.6 S 17 26 9 14 1016.0 1016.0 0.0
24/01:00pm 15.2 10.6 5.7 53 4.6 S 19 24 10 13 1016.3 1016.3 0.0
24/12:30pm 15.0 10.7 6.8 58 4.1 S 19 26 10 14 1016.7 1016.8 0.0
24/12:00pm 14.4 9.9 6.3 58 3.9 S 19 26 10 14 1017.1 1017.2 0.0
24/11:30am 14.3 10.0 6.9 61 3.7 SSW 19 26 10 14 1017.2 1017.3 0.0
24/11:00am 13.4 9.2 7.4 67 3.0 SSW 19 24 10 13 1017.3 1017.4 0.0
24/10:30am 12.8 8.3 5.9 63 3.3 S 19 26 10 14 1017.3 1017.4 0.0
24/10:00am 11.7 6.9 5.8 67 2.8 S 20 28 11 15 1017.3 1017.4 0.0
24/09:30am 10.1 6.2 5.5 73 2.1 S 15 24 8 13 1017.2 1017.3 0.0
24/09:00am 7.9 4.2 4.5 79 1.5 S 13 20 7 11 1016.9 1017.0 0.0
24/08:30am 6.2 3.6 4.2 87 0.9 SSW 7 11 4 6 1016.8 1016.9 0.0
24/08:00am 5.0 1.5 3.5 90 0.6 SSW 11 19 6 10 1016.5 1016.6 0.0
24/07:30am 4.3 0.3 3.1 92 0.5 SSW 13 17 7 9 1016.2 1016.2 0.0
24/07:00am 3.2 -0.5 2.3 94 0.4 SSW 11 15 6 8 1015.8 1015.8 0.0
24/06:30am 3.1 -0.6 2.4 95 0.3 S 11 13 6 7 1015.6 1015.6 0.0
24/06:00am 3.0 -0.8 1.8 92 0.5 S 11 13 6 7 1015.2 1015.2 0.0
24/05:30am 3.5 0.6 2.5 93 0.4 SSW 7 9 4 5 1014.7 1014.8 0.0
24/05:00am 3.8 0.5 2.6 92 0.5 SSW 9 11 5 6 1014.4 1014.5 0.0
24/04:30am 3.8 0.8 2.2 89 0.6 SSW 7 11 4 6 1014.4 1014.5 0.0
24/04:00am 4.5 1.2 2.5 87 0.8 SSW 9 11 5 6 1014.1 1014.2 0.0
24/03:30am 5.1 1.5 2.8 85 1.0 SSW 11 13 6 7 1014.1 1014.2 0.0
24/03:00am 5.8 2.6 3.3 84 1.1 SSW 9 13 5 7 1014.2 1014.3 0.0
24/02:30am 5.8 3.1 3.6 86 0.9 SW 7 11 4 6 1014.1 1014.2 0.0
24/02:00am 6.0 3.3 3.5 84 1.1 SSW 7 9 4 5 1014.2 1014.3 0.0
24/01:30am 7.0 4.1 4.5 84 1.1 SSW 9 11 5 6 1014.3 1014.4 0.0
24/01:00am 7.4 3.8 5.0 85 1.1 SSW 13 17 7 9 1014.1 1014.2 0.0
24/12:30am 7.4 3.9 5.5 88 0.9 SSW 13 17 7 9 1014.2 1014.3 0.0
24/12:00am 6.7 4.5 5.3 91 0.6 SW 6 9 3 5 1014.3 1014.4 0.0
 
Date/Time
EST
Temp
°C
App
Temp
°C
Dew
Point
°C
Rel
Hum
%
Delta-T
°C
Wind Press
QNH
hPa
Press
MSL
hPa
Rain since
9am
mm
Dir  Spd
km/h
Gust
km/h
Spd
kts
Gust
kts
23/11:30pm 5.9 3.0 4.4 90 0.7 SSW 9 13 5 7 1014.2 1014.3 0.0
23/11:00pm 6.4 3.5 4.9 90 0.7 SW 9 13 5 7 1014.3 1014.4 0.0
23/10:30pm 7.0 4.2 5.2 88 0.8 SW 9 13 5 7 1014.3 1014.4 0.0
23/10:00pm 7.2 3.6 5.2 87 0.9 SW 13 17 7 9 1014.2 1014.3 0.0
23/09:30pm 7.3 4.1 5.3 87 0.9 SW 11 17 6 9 1014.1 1014.2 0.0
23/09:00pm 7.5 4.7 5.3 86 1.0 SW 9 15 5 8 1014.1 1014.2 0.0
23/08:30pm 7.8 4.8 5.8 87 0.9 WSW 11 15 6 8 1013.9 1014.0 0.0
23/08:00pm 8.1 5.4 5.7 85 1.1 SW 9 11 5 6 1014.0 1014.1 0.0
23/07:30pm 8.7 5.4 6.3 85 1.1 SW 13 20 7 11 1013.8 1013.9 0.0
23/07:00pm 8.8 5.8 6.1 83 1.3 SW 11 15 6 8 1013.9 1014.0 0.0
23/06:30pm 9.0 5.6 5.9 81 1.4 WSW 13 20 7 11 1013.6 1013.7 0.0
23/06:00pm 9.5 5.7 6.0 79 1.6 WSW 15 19 8 10 1013.6 1013.7 0.0
23/05:30pm 9.8 6.5 6.5 80 1.6 WSW 13 19 7 10 1013.4 1013.4 0.0
23/05:00pm 10.1 6.8 6.4 78 1.8 WSW 13 19 7 10 1013.1 1013.1 0.0
23/04:30pm 10.4 7.1 6.4 76 1.9 WSW 13 20 7 11 1013.1 1013.1 0.0
23/04:00pm 10.8 6.7 6.4 74 2.1 WSW 17 28 9 15 1013.0 1013.0 0.0
23/03:30pm 11.7 7.3 6.6 71 2.5 WSW 19 28 10 15 1013.0 1013.0 0.0
23/03:00pm 12.2 7.6 6.7 69 2.7 WSW 20 26 11 14 1012.8 1012.8 0.0
23/02:30pm 12.7 8.7 6.5 66 3.0 WSW 17 26 9 14 1012.7 1012.7 0.0
23/02:00pm 12.6 8.1 6.2 65 3.1 WSW 19 26 10 14 1012.8 1012.8 0.0
23/01:30pm 12.9 8.2 5.3 60 3.6 WSW 19 24 10 13 1013.0 1013.0 0.0
23/01:00pm 13.1 8.5 5.5 60 3.6 SW 19 28 10 15 1013.1 1013.1 0.0
23/12:30pm 12.4 8.3 6.0 65 3.1 SW 17 22 9 12 1013.4 1013.4 0.0
23/12:00pm 11.8 7.3 6.3 69 2.6 WSW 19 24 10 13 1013.7 1013.8 0.0
23/11:30am 11.4 7.2 5.9 69 2.6 SW 17 24 9 13 1014.1 1014.2 0.0

Other formats

Comma delimited format used in spreadsheet applications
http://www.bom.gov.au/fwo/IDN60801/IDN60801.95722.axf

JavaScript Object Notation format (JSON) in row-major order
http://www.bom.gov.au/fwo/IDN60801/IDN60801.95722.json

Data quality

Most of these data are generated automatically and are frequently updated. Quality checks on data are not normally performed. It is possible for incorrect values to appear. Refer to information at About Latest Weather Observations and please check the disclaimer before using these data.